createdAt,value
2016-10-09T00:00:52.772Z,40.42
2016-10-09T00:01:52.838Z,40.99
2016-10-09T00:02:52.893Z,40.99
2016-10-09T00:03:52.970Z,40.9
2016-10-09T00:04:52.985Z,40.8
2016-10-09T00:05:53.065Z,41.19
2016-10-09T00:06:53.142Z,41.57
2016-10-09T00:07:53.167Z,41.48
2016-10-09T00:08:53.228Z,42.44
2016-10-09T00:09:53.280Z,42.35
2016-10-09T00:10:53.328Z,41.67
2016-10-09T00:11:53.355Z,41.57
2016-10-09T00:12:54.003Z,41.28
2016-10-09T00:13:53.498Z,41.09
2016-10-09T00:14:53.540Z,40.72
2016-10-09T00:15:53.587Z,40.9
2016-10-09T00:16:53.633Z,40.8
2016-10-09T00:17:53.679Z,40.99
2016-10-09T00:18:53.757Z,40.61
2016-10-09T00:19:54.342Z,40.7
2016-10-09T00:20:53.864Z,40.9
2016-10-09T00:21:53.932Z,40.9
2016-10-09T00:22:53.982Z,41.77
2016-10-09T00:23:54.008Z,41.57
2016-10-09T00:24:54.075Z,41.57
2016-10-09T00:25:54.121Z,41.96
2016-10-09T00:26:54.213Z,41.86
2016-10-09T00:27:54.341Z,41.96
2016-10-09T00:28:54.279Z,42.54
2016-10-09T00:29:54.386Z,42.63
2016-10-09T00:30:54.391Z,42.35
2016-10-09T00:31:54.441Z,42.35
2016-10-09T00:32:54.599Z,41.96
2016-10-09T00:33:54.588Z,42.25
2016-10-09T00:34:54.620Z,42.35
2016-10-09T00:35:54.670Z,42.35
2016-10-09T00:36:54.767Z,42.54
2016-10-09T00:37:54.793Z,42.8
2016-10-09T00:38:54.850Z,42.93
2016-10-09T00:39:54.867Z,42.8
2016-10-09T00:40:54.943Z,43.1
2016-10-09T00:41:54.992Z,43.48
2016-10-09T00:42:55.069Z,43.48
2016-10-09T00:43:55.099Z,43.29
2016-10-09T00:44:55.171Z,43.1
2016-10-09T00:45:55.207Z,42.61
2016-10-09T00:46:55.263Z,43.38
2016-10-09T00:47:55.339Z,43.38
2016-10-09T00:48:55.372Z,43.29
2016-10-09T00:49:55.441Z,43
2016-10-09T00:50:55.485Z,43.87
2016-10-09T00:51:55.528Z,44.06
2016-10-09T00:52:55.563Z,43.77
2016-10-09T00:53:55.626Z,43.77
2016-10-09T00:54:55.713Z,43.96
2016-10-09T00:55:55.749Z,43.96
2016-10-09T00:56:55.822Z,43.96
2016-10-09T00:57:55.836Z,43.96
2016-10-09T00:58:55.914Z,44.25
2016-10-09T00:59:55.979Z,44.15
2016-10-09T01:00:56.007Z,44.32
2016-10-09T01:01:56.055Z,44.9
2016-10-09T01:02:56.098Z,44.52
2016-10-09T01:03:56.289Z,44.9
2016-10-09T01:04:56.236Z,44.81
2016-10-09T01:05:56.318Z,45.1
2016-10-09T01:06:56.345Z,45.29
2016-10-09T01:07:56.899Z,44.71
2016-10-09T01:08:56.528Z,44.9
2016-10-09T01:09:56.499Z,44.13
2016-10-09T01:10:56.552Z,45.1
2016-10-09T01:11:56.621Z,45.2
2016-10-09T01:12:56.666Z,44.9
2016-10-09T01:13:56.705Z,44.9
2016-10-09T01:14:56.786Z,44.9
2016-10-09T01:15:56.841Z,44.32
2016-10-09T01:16:56.872Z,45.2
2016-10-09T01:17:56.955Z,45.29
2016-10-09T01:18:56.960Z,45
2016-10-09T01:19:57.041Z,44.52
2016-10-09T01:20:57.098Z,44.9
2016-10-09T01:21:57.141Z,45.2
2016-10-09T01:22:57.220Z,45.2
2016-10-09T01:23:57.244Z,45
2016-10-09T01:24:57.313Z,44.9
2016-10-09T01:25:57.335Z,45.48
2016-10-09T01:26:57.393Z,45.58
2016-10-09T01:27:57.452Z,45.65
2016-10-09T01:28:57.489Z,46.06
2016-10-09T01:29:57.666Z,45.77
2016-10-09T01:30:57.608Z,45.58
2016-10-09T01:31:57.711Z,46.06
2016-10-09T01:32:57.736Z,46.25
2016-10-09T01:33:57.870Z,46.25
2016-10-09T01:34:57.935Z,45.97
2016-10-09T01:35:57.867Z,46.15
2016-10-09T01:36:57.928Z,45.97
2016-10-09T01:37:57.977Z,45.87
2016-10-09T01:38:58.058Z,46.06
2016-10-09T01:39:58.206Z,46.25
2016-10-09T01:40:58.179Z,45.68
2016-10-09T01:41:58.183Z,46.04
2016-10-09T01:42:58.239Z,46.04
2016-10-09T01:43:58.312Z,45.94
2016-10-09T01:44:58.413Z,46.04
2016-10-09T01:45:58.431Z,46.42
2016-10-09T01:46:58.476Z,46.42
2016-10-09T01:47:58.521Z,46.52
2016-10-09T01:48:58.586Z,46.62
2016-10-09T01:49:58.627Z,46.62
2016-10-09T01:50:58.700Z,46.62
2016-10-09T01:51:58.729Z,46.62
2016-10-09T01:52:58.791Z,46.42
2016-10-09T01:53:58.856Z,46.23
2016-10-09T01:54:58.900Z,46.71
2016-10-09T01:55:58.954Z,46.81
2016-10-09T01:56:58.989Z,46.81
2016-10-09T01:57:59.073Z,46.69
2016-10-09T01:58:59.130Z,46.81
2016-10-09T01:59:59.664Z,46.71
2016-10-09T02:00:59.210Z,46.71
2016-10-09T02:01:59.289Z,46.91
2016-10-09T02:02:59.313Z,47.17
2016-10-09T02:03:59.382Z,46.69
2016-10-09T02:04:59.436Z,46.71
2016-10-09T02:05:59.572Z,46.71
2016-10-09T02:06:59.564Z,46.42
2016-10-09T02:07:59.605Z,46.33
2016-10-09T02:08:59.620Z,47
2016-10-09T02:10:00.247Z,46.62
2016-10-09T02:10:59.853Z,46.52
2016-10-09T02:11:59.836Z,46.33
2016-10-09T02:12:59.843Z,46.5
2016-10-09T02:13:59.919Z,47.36
2016-10-09T02:14:59.980Z,47.27
2016-10-09T02:16:00.109Z,47.36
2016-10-09T02:17:00.052Z,47.85
2016-10-09T02:18:00.139Z,47.85
2016-10-09T02:19:00.145Z,47.85
2016-10-09T02:20:00.244Z,48.9
2016-10-09T02:21:00.275Z,48.13
2016-10-09T02:22:00.310Z,48.61
2016-10-09T02:23:00.373Z,47.85
2016-10-09T02:24:00.455Z,48.9
2016-10-09T02:25:00.467Z,48.33
2016-10-09T02:26:00.585Z,48.61
2016-10-09T02:27:00.596Z,48.71
2016-10-09T02:28:00.651Z,48.88
2016-10-09T02:29:00.688Z,48.43
2016-10-09T02:30:00.752Z,48.59
2016-10-09T02:31:00.820Z,48.69
2016-10-09T02:32:00.890Z,48.61
2016-10-09T02:33:00.889Z,48.81
2016-10-09T02:34:00.985Z,48.81
2016-10-09T02:35:01.019Z,49.1
2016-10-09T02:36:01.063Z,49.36
2016-10-09T02:37:01.219Z,48.79
2016-10-09T02:38:01.180Z,49.1
2016-10-09T02:39:01.217Z,49.48
2016-10-09T02:40:01.286Z,49.55
2016-10-09T02:41:01.335Z,49.36
2016-10-09T02:42:01.507Z,49.65
2016-10-09T02:43:01.428Z,50.13
2016-10-09T02:44:01.492Z,50.13
2016-10-09T02:45:01.544Z,49.94
2016-10-09T02:46:01.613Z,49.94
2016-10-09T02:47:01.737Z,50.04
2016-10-09T02:48:01.681Z,50.13
2016-10-09T02:49:01.757Z,49.84
2016-10-09T02:50:01.807Z,49.94
2016-10-09T02:51:01.862Z,50.04
2016-10-09T02:52:02.013Z,49.55
2016-10-09T02:53:02.521Z,49.55
2016-10-09T02:54:02.033Z,49.36
2016-10-09T02:55:02.065Z,49.46
2016-10-09T02:56:02.161Z,49.74
2016-10-09T02:57:02.172Z,49.55
2016-10-09T02:58:02.230Z,49.74
2016-10-09T02:59:02.281Z,50.32
2016-10-09T03:00:02.312Z,50.61
2016-10-09T03:01:02.387Z,50.23
2016-10-09T03:02:02.451Z,50.13
2016-10-09T03:03:02.515Z,50.71
2016-10-09T03:04:02.555Z,50.9
2016-10-09T03:05:02.589Z,51.09
2016-10-09T03:06:02.668Z,50.61
2016-10-09T03:07:02.707Z,50.9
2016-10-09T03:08:02.758Z,50.81
2016-10-09T03:09:02.793Z,51.09
2016-10-09T03:10:02.843Z,51.29
2016-10-09T03:11:02.918Z,50.61
2016-10-09T03:12:03.494Z,50.51
2016-10-09T03:13:03.046Z,50.81
2016-10-09T03:14:03.066Z,50.81
2016-10-09T03:15:03.117Z,50.9
2016-10-09T03:16:03.183Z,51.09
2016-10-09T03:17:03.253Z,51.29
2016-10-09T03:18:03.398Z,50.9
2016-10-09T03:19:03.346Z,50.9
2016-10-09T03:20:03.372Z,50.81
2016-10-09T03:21:03.435Z,51.29
2016-10-09T03:22:03.501Z,51.09
2016-10-09T03:23:03.666Z,51.09
2016-10-09T03:24:03.615Z,51.09
2016-10-09T03:25:03.666Z,51.09
2016-10-09T03:26:03.687Z,50.9
2016-10-09T03:27:03.769Z,51.19
2016-10-09T03:28:03.903Z,51.19
2016-10-09T03:29:03.846Z,51.38
2016-10-09T03:30:03.904Z,51.55
2016-10-09T03:31:04.497Z,51.38
2016-10-09T03:32:04.016Z,51.67
2016-10-09T03:33:04.091Z,51.86
2016-10-09T03:34:04.148Z,51.35
2016-10-09T03:35:04.189Z,51.07
2016-10-09T03:36:04.226Z,51.19
2016-10-09T03:37:04.810Z,51.26
2016-10-09T03:38:04.384Z,51.67
2016-10-09T03:39:04.392Z,51.55
2016-10-09T03:40:04.427Z,51.55
2016-10-09T03:41:04.529Z,51.74
2016-10-09T03:42:04.578Z,52.42
2016-10-09T03:43:04.596Z,52.42
2016-10-09T03:44:04.676Z,52.03
2016-10-09T03:45:04.745Z,52.32
2016-10-09T03:46:04.741Z,52.42
2016-10-09T03:47:04.794Z,52.7
2016-10-09T03:48:04.861Z,52.61
2016-10-09T03:49:04.934Z,52.42
2016-10-09T03:50:04.979Z,52.51
2016-10-09T03:51:05.038Z,52.22
2016-10-09T03:52:05.092Z,52.42
2016-10-09T03:53:05.140Z,52.32
2016-10-09T03:54:05.291Z,52.12
2016-10-09T03:55:05.228Z,52.61
2016-10-09T03:56:05.285Z,52.42
2016-10-09T03:57:05.343Z,52.51
2016-10-09T03:58:05.391Z,52.61
2016-10-09T03:59:05.554Z,52.12
2016-10-09T04:00:05.487Z,52.51
2016-10-09T04:01:05.537Z,53.09
2016-10-09T04:02:05.620Z,52.8
2016-10-09T04:03:05.641Z,52.89
2016-10-09T04:04:06.359Z,52.99
2016-10-09T04:05:05.784Z,52.99
2016-10-09T04:06:05.837Z,52.8
2016-10-09T04:07:05.856Z,52.8
2016-10-09T04:08:05.918Z,52.8
2016-10-09T04:09:05.960Z,52.8
2016-10-09T04:10:06.033Z,53.09
2016-10-09T04:11:06.050Z,52.99
2016-10-09T04:12:06.157Z,53.57
2016-10-09T04:13:06.185Z,52.61
2016-10-09T04:14:06.259Z,52.99
2016-10-09T04:15:06.267Z,52.7
2016-10-09T04:16:06.320Z,52.89
2016-10-09T04:17:06.371Z,52.99
2016-10-09T04:18:06.440Z,52.87
2016-10-09T04:19:06.498Z,52.8
2016-10-09T04:20:06.537Z,52.99
2016-10-09T04:21:06.628Z,52.7
2016-10-09T04:22:06.677Z,52.99
2016-10-09T04:23:06.708Z,52.99
2016-10-09T04:24:07.271Z,53.16
2016-10-09T04:25:06.810Z,53.35
2016-10-09T04:26:06.873Z,52.97
2016-10-09T04:27:06.927Z,53.25
2016-10-09T04:28:06.985Z,53.25
2016-10-09T04:29:07.028Z,52.97
2016-10-09T04:30:07.210Z,53.38
2016-10-09T04:31:07.142Z,53.66
2016-10-09T04:32:07.178Z,53.54
2016-10-09T04:33:07.233Z,53.54
2016-10-09T04:34:07.284Z,54.02
2016-10-09T04:35:07.426Z,54.02
2016-10-09T04:36:07.390Z,53.92
2016-10-09T04:37:07.429Z,53.64
2016-10-09T04:38:07.481Z,53.74
2016-10-09T04:39:07.553Z,53.35
2016-10-09T04:40:07.583Z,53.54
2016-10-09T04:41:07.662Z,53.54
2016-10-09T04:42:08.267Z,53.45
2016-10-09T04:43:07.792Z,53.54
2016-10-09T04:44:07.789Z,53.45
2016-10-09T04:45:07.858Z,53.45
2016-10-09T04:46:07.923Z,53.92
2016-10-09T04:47:07.958Z,53.74
2016-10-09T04:48:08.018Z,54.12
2016-10-09T04:49:08.051Z,54.09
2016-10-09T04:50:08.640Z,54.41
2016-10-09T04:51:08.173Z,54.12
2016-10-09T04:52:08.232Z,54.28
2016-10-09T04:53:08.292Z,54.38
2016-10-09T04:54:08.325Z,54.38
2016-10-09T04:55:08.389Z,54.57
2016-10-09T04:56:08.436Z,54.31
2016-10-09T04:57:09.048Z,54.31
2016-10-09T04:58:08.544Z,54.02
2016-10-09T04:59:08.593Z,54.12
2016-10-09T05:00:08.664Z,54.31
2016-10-09T05:01:08.678Z,54.31
2016-10-09T05:02:08.749Z,54.41
2016-10-09T05:03:08.794Z,54.12
2016-10-09T05:04:08.899Z,54.12
2016-10-09T05:05:08.919Z,54.5
2016-10-09T05:06:09.077Z,54.6
2016-10-09T05:07:09.006Z,54.6
2016-10-09T05:08:09.038Z,54.41
2016-10-09T05:09:09.141Z,54.5
2016-10-09T05:10:09.153Z,54.41
2016-10-09T05:11:09.307Z,54.6
2016-10-09T05:12:09.281Z,54.69
2016-10-09T05:13:09.330Z,54.99
2016-10-09T05:14:09.362Z,54.89
2016-10-09T05:15:09.434Z,54.99
2016-10-09T05:16:09.471Z,55.76
2016-10-09T05:17:09.515Z,55.56
2016-10-09T05:18:09.581Z,55.46
2016-10-09T05:19:09.651Z,55.76
2016-10-09T05:20:09.711Z,55.66
2016-10-09T05:21:09.731Z,56.33
2016-10-09T05:22:09.790Z,56.33
2016-10-09T05:23:09.838Z,56.14
2016-10-09T05:24:09.909Z,56.91
2016-10-09T05:25:09.984Z,56.81
2016-10-09T05:26:10.057Z,57.58
2016-10-09T05:27:10.076Z,57.87
2016-10-09T05:28:10.116Z,58.15
2016-10-09T05:29:10.174Z,59.22
2016-10-09T05:30:10.217Z,59.02
2016-10-09T05:31:10.282Z,59.12
2016-10-09T05:32:10.331Z,59.02
2016-10-09T05:33:10.366Z,59.6
2016-10-09T05:34:10.436Z,60.17
2016-10-09T05:35:10.484Z,60.66
2016-10-09T05:36:10.515Z,60.91
2016-10-09T05:37:10.703Z,61.14
2016-10-09T05:38:10.622Z,61.81
2016-10-09T05:39:10.711Z,61.58
2016-10-09T05:40:10.730Z,62.38
2016-10-09T05:41:10.786Z,62.26
2016-10-09T05:42:10.970Z,62.38
2016-10-09T05:43:10.892Z,62.26
2016-10-09T05:44:10.949Z,62.55
2016-10-09T05:45:11.033Z,62.96
2016-10-09T05:46:11.044Z,62.55
2016-10-09T05:47:11.142Z,62.64
2016-10-09T05:48:11.172Z,63.25
2016-10-09T05:49:11.195Z,63.15
2016-10-09T05:50:11.292Z,63.35
2016-10-09T05:51:11.308Z,63.92
2016-10-09T05:52:11.373Z,63.7
2016-10-09T05:53:11.423Z,63.54
2016-10-09T05:54:11.483Z,64.02
2016-10-09T05:55:11.525Z,63.99
2016-10-09T05:56:11.579Z,63.79
2016-10-09T05:57:11.645Z,63.89
2016-10-09T05:58:11.675Z,64.28
2016-10-09T05:59:11.734Z,64.09
2016-10-09T06:00:11.794Z,63.99
2016-10-09T06:01:11.852Z,64.89
2016-10-09T06:02:11.909Z,64.85
2016-10-09T06:03:11.955Z,64.6
2016-10-09T06:04:12.000Z,64.79
2016-10-09T06:05:12.057Z,65.17
2016-10-09T06:06:12.114Z,65.14
2016-10-09T06:07:12.164Z,65.14
2016-10-09T06:08:12.283Z,65.05
2016-10-09T06:09:12.284Z,66.1
2016-10-09T06:10:12.315Z,66.2
2016-10-09T06:11:12.346Z,66.49
2016-10-09T06:12:12.413Z,66.3
2016-10-09T06:13:12.579Z,66
2016-10-09T06:14:12.506Z,66.2
2016-10-09T06:15:12.569Z,66.49
2016-10-09T06:16:12.597Z,66.3
2016-10-09T06:17:12.666Z,66.49
2016-10-09T06:18:12.822Z,66.58
2016-10-09T06:19:12.817Z,66.49
2016-10-09T06:20:12.846Z,66.3
2016-10-09T06:21:12.870Z,66.97
2016-10-09T06:22:12.929Z,66.77
2016-10-09T06:23:13.026Z,66.58
2016-10-09T06:24:13.585Z,66.68
2016-10-09T06:25:13.085Z,66.58
2016-10-09T06:26:13.156Z,66.77
2016-10-09T06:27:13.175Z,66.87
2016-10-09T06:28:13.234Z,66.77
2016-10-09T06:29:13.293Z,67.35
2016-10-09T06:30:13.325Z,67.25
2016-10-09T06:31:13.394Z,67.54
2016-10-09T06:32:13.458Z,67.74
2016-10-09T06:33:13.494Z,67.93
2016-10-09T06:34:13.590Z,67.83
2016-10-09T06:35:13.636Z,67.83
2016-10-09T06:36:13.653Z,67.64
2016-10-09T06:37:14.234Z,67.54
2016-10-09T06:38:13.772Z,67.83
2016-10-09T06:40:13.902Z,67.35
2016-10-09T06:41:13.902Z,67.54
2016-10-09T06:42:13.953Z,67.64
2016-10-09T06:43:14.027Z,67.45
2016-10-09T06:44:14.066Z,67.74
2016-10-09T06:45:14.127Z,67.54
2016-10-09T06:46:14.191Z,67.74
2016-10-09T06:47:14.261Z,67.8
2016-10-09T06:48:14.293Z,67.74
2016-10-09T06:49:14.388Z,67.9
2016-10-09T06:50:14.406Z,68.28
2016-10-09T06:51:14.444Z,68.08
2016-10-09T06:52:14.491Z,68.28
2016-10-09T06:53:14.556Z,68.47
2016-10-09T06:54:14.615Z,68.79
2016-10-09T06:55:14.680Z,68.6
2016-10-09T06:56:14.699Z,68.85
2016-10-09T06:57:14.755Z,68.47
2016-10-09T06:58:14.837Z,69.46
2016-10-09T06:59:14.870Z,69.62
2016-10-09T07:00:14.920Z,70.2
2016-10-09T07:01:15.001Z,69.91
2016-10-09T07:02:15.006Z,69.72
2016-10-09T07:03:15.065Z,70.29
2016-10-09T07:04:15.114Z,69.81
2016-10-09T07:05:15.205Z,70.29
2016-10-09T07:06:15.263Z,70.1
2016-10-09T07:07:15.290Z,70.2
2016-10-09T07:08:15.322Z,70.68
2016-10-09T07:09:15.402Z,70.1
2016-10-09T07:10:15.438Z,70.49
2016-10-09T07:11:15.513Z,70.2
2016-10-09T07:12:15.540Z,70.58
2016-10-09T07:13:15.572Z,70.1
2016-10-09T07:14:15.652Z,69.91
2016-10-09T07:15:15.704Z,69.91
2016-10-09T07:16:15.754Z,70.49
2016-10-09T07:17:15.791Z,69.91
2016-10-09T07:18:15.858Z,70.2
2016-10-09T07:19:15.886Z,70.39
2016-10-09T07:20:15.927Z,70.49
2016-10-09T07:21:15.982Z,70.1
2016-10-09T07:22:16.064Z,70.1
2016-10-09T07:23:16.115Z,70.1
2016-10-09T07:24:16.170Z,70.58
2016-10-09T07:25:16.190Z,70.29
2016-10-09T07:26:16.259Z,70.29
2016-10-09T07:27:16.323Z,70.49
2016-10-09T07:28:16.409Z,70.49
2016-10-09T07:29:16.455Z,70.49
2016-10-09T07:30:16.498Z,70.1
2016-10-09T07:31:16.543Z,69.87
2016-10-09T07:32:16.596Z,70.36
2016-10-09T07:33:16.619Z,70.17
2016-10-09T07:34:16.688Z,70.36
2016-10-09T07:35:16.733Z,70.55
2016-10-09T07:36:16.791Z,69.97
2016-10-09T07:37:16.848Z,69.68
2016-10-09T07:38:16.891Z,70.07
2016-10-09T07:39:16.936Z,69.68
2016-10-09T07:40:16.993Z,69.59
2016-10-09T07:41:17.030Z,69.87
2016-10-09T07:42:17.098Z,69.87
2016-10-09T07:43:17.137Z,69.4
2016-10-09T07:44:17.181Z,69.2
2016-10-09T07:45:17.229Z,69.68
2016-10-09T07:46:17.341Z,69.68
2016-10-09T07:47:17.349Z,70.17
2016-10-09T07:48:17.389Z,70.36
2016-10-09T07:49:17.445Z,69.97
2016-10-09T07:50:18.256Z,70.45
2016-10-09T07:51:17.572Z,70.26
2016-10-09T07:52:17.601Z,69.87
2016-10-09T07:53:17.652Z,69.93
2016-10-09T07:54:17.710Z,70.07
2016-10-09T07:55:17.764Z,70.42
2016-10-09T07:56:17.824Z,70.55
2016-10-09T07:57:17.886Z,69.68
2016-10-09T07:58:17.927Z,69.87
2016-10-09T07:59:17.949Z,70.42
2016-10-09T08:00:18.043Z,70.13
2016-10-09T08:01:18.098Z,70.13
2016-10-09T08:02:18.134Z,70.03
2016-10-09T08:03:18.226Z,70.07
2016-10-09T08:04:18.239Z,70.36
2016-10-09T08:05:18.311Z,70.32
2016-10-09T08:06:18.344Z,70.23
2016-10-09T08:07:18.383Z,70.61
2016-10-09T08:08:18.461Z,70.17
2016-10-09T08:09:18.998Z,70.42
2016-10-09T08:10:18.560Z,70.23
2016-10-09T08:11:18.588Z,70.03
2016-10-09T08:12:18.642Z,70.42
2016-10-09T08:13:18.698Z,70.23
2016-10-09T08:14:18.733Z,70.17
2016-10-09T08:15:18.774Z,70.32
2016-10-09T08:16:18.838Z,70.42
2016-10-09T08:17:18.879Z,70.03
2016-10-09T08:18:18.956Z,70.03
2016-10-09T08:19:19.017Z,69.56
2016-10-09T08:20:19.087Z,69.46
2016-10-09T08:21:19.130Z,69.46
2016-10-09T08:22:19.156Z,69.74
2016-10-09T08:23:19.207Z,70.42
2016-10-09T08:24:19.246Z,69.56
2016-10-09T08:25:19.317Z,69.36
2016-10-09T08:26:19.385Z,69.36
2016-10-09T08:27:19.412Z,69.56
2016-10-09T08:28:19.464Z,69.36
2016-10-09T08:29:19.535Z,69.17
2016-10-09T08:30:19.560Z,69.36
2016-10-09T08:31:20.162Z,69.62
2016-10-09T08:32:19.701Z,69.52
2016-10-09T08:33:19.751Z,69.42
2016-10-09T08:34:19.769Z,69.81
2016-10-09T08:35:19.807Z,69.81
2016-10-09T08:36:19.902Z,69.81
2016-10-09T08:37:19.920Z,70.23
2016-10-09T08:38:20.503Z,70.29
2016-10-09T08:39:20.023Z,70.38
2016-10-09T08:40:20.072Z,70.23
2016-10-09T08:41:20.112Z,70.03
2016-10-09T08:42:20.204Z,70.42
2016-10-09T08:43:20.246Z,70.76
2016-10-09T08:44:20.318Z,71.57
2016-10-09T08:45:20.358Z,72.39
2016-10-09T08:46:20.396Z,72.68
2016-10-09T08:47:20.457Z,72.49
2016-10-09T08:48:20.517Z,72.97
2016-10-09T08:49:20.531Z,72.88
2016-10-09T08:50:20.623Z,72.68
2016-10-09T08:51:20.639Z,72.78
2016-10-09T08:52:20.698Z,73.74
2016-10-09T08:53:20.758Z,73.45
2016-10-09T08:54:20.792Z,74.12
2016-10-09T08:55:20.838Z,74.02
2016-10-09T08:56:20.892Z,74.12
2016-10-09T08:57:20.934Z,73.83
2016-10-09T08:58:20.984Z,74.22
2016-10-09T08:59:21.053Z,74.64
2016-10-09T09:00:21.102Z,74.54
2016-10-09T09:01:21.141Z,74.6
2016-10-09T09:02:21.219Z,75.27
2016-10-09T09:03:21.278Z,75.08
2016-10-09T09:04:21.362Z,75.37
2016-10-09T09:05:21.353Z,75.08
2016-10-09T09:06:21.415Z,75.75
2016-10-09T09:07:21.462Z,75.27
2016-10-09T09:08:21.531Z,75.08
2016-10-09T09:09:21.587Z,75.27
2016-10-09T09:10:21.613Z,75.85
2016-10-09T09:11:21.678Z,76.42
2016-10-09T09:12:21.765Z,76.32
2016-10-09T09:13:21.774Z,75.85
2016-10-09T09:14:21.879Z,76.42
2016-10-09T09:15:21.904Z,76.14
2016-10-09T09:16:21.965Z,75.95
2016-10-09T09:17:21.965Z,76.52
2016-10-09T09:18:22.034Z,76.32
2016-10-09T09:19:22.077Z,76.81
2016-10-09T09:20:22.138Z,77.29
2016-10-09T09:21:22.166Z,77.19
2016-10-09T09:22:22.229Z,77.38
2016-10-09T09:23:22.316Z,77.38
2016-10-09T09:24:22.341Z,78.05
2016-10-09T09:25:22.408Z,78.72
2016-10-09T09:26:22.456Z,79.78
2016-10-09T09:27:22.499Z,80.12
2016-10-09T09:28:22.564Z,80.41
2016-10-09T09:29:22.575Z,80.22
2016-10-09T09:30:22.676Z,80.26
2016-10-09T09:31:22.711Z,79.68
2016-10-09T09:32:22.749Z,79.78
2016-10-09T09:33:22.794Z,80.07
2016-10-09T09:34:22.867Z,79.78
2016-10-09T09:35:22.919Z,80.16
2016-10-09T09:36:22.939Z,79.68
2016-10-09T09:37:23.009Z,79.97
2016-10-09T09:38:23.078Z,79.88
2016-10-09T09:39:23.120Z,79.88
2016-10-09T09:40:23.181Z,79.97
2016-10-09T09:41:23.195Z,79.68
2016-10-09T09:42:23.298Z,79.01
2016-10-09T09:43:23.310Z,78.92
2016-10-09T09:44:23.404Z,78.72
2016-10-09T09:45:23.431Z,78.72
2016-10-09T09:46:23.515Z,78.34
2016-10-09T09:47:23.510Z,78.96
2016-10-09T09:48:23.583Z,78.19
2016-10-09T09:49:23.646Z,77.42
2016-10-09T09:50:23.664Z,77.23
2016-10-09T09:51:23.724Z,76.56
2016-10-09T09:52:23.812Z,77.13
2016-10-09T09:53:24.357Z,77.23
2016-10-09T09:54:23.888Z,77.33
2016-10-09T09:55:23.940Z,77.33
2016-10-09T09:56:24.016Z,76.84
2016-10-09T09:57:24.015Z,77.26
2016-10-09T09:58:24.081Z,77.08
2016-10-09T09:59:24.141Z,76.59
2016-10-09T10:00:24.221Z,76.79
2016-10-09T10:01:24.245Z,76.98
2016-10-09T10:02:24.303Z,76.59
2016-10-09T10:03:24.360Z,76.02
2016-10-09T10:04:24.443Z,75.25
2016-10-09T10:05:24.441Z,73.85
2016-10-09T10:06:24.506Z,73.08
2016-10-09T10:07:24.581Z,71.96
2016-10-09T10:08:24.617Z,70.65
2016-10-09T10:09:24.675Z,69.6
2016-10-09T10:10:24.722Z,69.44
2016-10-09T10:11:24.806Z,68.57
2016-10-09T10:12:24.819Z,67.42
2016-10-09T10:13:24.879Z,66.78
2016-10-09T10:14:24.980Z,66.39
2016-10-09T10:15:25.023Z,65.08
2016-10-09T10:16:25.050Z,64.69
2016-10-09T10:17:25.134Z,63.95
2016-10-09T10:18:25.190Z,63.73
2016-10-09T10:19:25.224Z,63.28
2016-10-09T10:20:25.311Z,62.25
2016-10-09T10:21:25.336Z,60.8
2016-10-09T10:22:25.440Z,60.52
2016-10-09T10:23:25.475Z,61
2016-10-09T10:24:25.533Z,61.38
2016-10-09T10:25:25.602Z,61.19
2016-10-09T10:26:25.639Z,61
2016-10-09T10:27:25.683Z,60.26
2016-10-09T10:28:26.294Z,60.35
2016-10-09T10:29:25.829Z,60.42
2016-10-09T10:30:25.851Z,60.61
2016-10-09T10:31:25.970Z,61
2016-10-09T10:32:25.983Z,60.9
2016-10-09T10:33:26.039Z,61.29
2016-10-09T10:34:26.083Z,61.19
2016-10-09T10:35:26.165Z,60.9
2016-10-09T10:36:26.233Z,60.71
2016-10-09T10:37:26.266Z,61.29
2016-10-09T10:38:26.361Z,61.1
2016-10-09T10:39:26.372Z,60.9
2016-10-09T10:40:26.451Z,60.9
2016-10-09T10:41:26.504Z,62.06
2016-10-09T10:42:26.572Z,61.48
2016-10-09T10:43:26.619Z,61.38
2016-10-09T10:44:26.673Z,61.29
2016-10-09T10:45:26.732Z,61.29
2016-10-09T10:46:26.773Z,62.15
2016-10-09T10:47:26.839Z,62.15
2016-10-09T10:48:26.870Z,60.9
2016-10-09T10:49:26.939Z,61.1
2016-10-09T10:50:27.016Z,61.1
2016-10-09T10:51:27.038Z,60.52
2016-10-09T10:52:27.114Z,60.9
2016-10-09T10:53:27.195Z,60.71
2016-10-09T10:54:27.215Z,60.8
2016-10-09T10:55:27.280Z,61.19
2016-10-09T10:56:27.351Z,61.29
2016-10-09T10:57:27.411Z,60.9
2016-10-09T10:58:27.446Z,60.32
2016-10-09T10:59:27.505Z,60.23
2016-10-09T11:00:27.542Z,61
2016-10-09T11:01:27.595Z,61.25
2016-10-09T11:02:27.666Z,60.68
2016-10-09T11:03:27.710Z,60.97
2016-10-09T11:04:27.802Z,61.25
2016-10-09T11:05:27.828Z,61.16
2016-10-09T11:06:27.886Z,60.3
2016-10-09T11:07:27.953Z,59.72
2016-10-09T11:08:28.013Z,60.68
2016-10-09T11:09:28.063Z,60.87
2016-10-09T11:10:28.119Z,60.3
2016-10-09T11:11:28.146Z,60.1
2016-10-09T11:12:28.209Z,57.69
2016-10-09T11:13:28.292Z,57.12
2016-10-09T11:14:28.308Z,58.72
2016-10-09T11:15:28.362Z,59.2
2016-10-09T11:16:28.405Z,59.69
2016-10-09T11:17:28.492Z,59.4
2016-10-09T11:18:28.515Z,57.79
2016-10-09T11:19:28.581Z,58.08
2016-10-09T11:20:28.653Z,58.08
2016-10-09T11:21:28.685Z,58.65
2016-10-09T11:22:28.787Z,59.11
2016-10-09T11:23:28.802Z,59.3
2016-10-09T11:24:28.882Z,58.63
2016-10-09T11:25:28.895Z,58.95
2016-10-09T11:26:28.966Z,58.85
2016-10-09T11:27:29.046Z,58.17
2016-10-09T11:28:29.062Z,58.37
2016-10-09T11:29:29.124Z,58.47
2016-10-09T11:30:29.171Z,58.95
2016-10-09T11:31:29.223Z,58.56
2016-10-09T11:32:29.306Z,59.23
2016-10-09T11:33:29.346Z,59.14
2016-10-09T11:34:29.428Z,58.85
2016-10-09T11:35:29.438Z,58.17
2016-10-09T11:36:29.505Z,57.79
2016-10-09T11:37:29.560Z,57.24
2016-10-09T11:38:29.617Z,57.92
2016-10-09T11:39:29.663Z,58.17
2016-10-09T11:40:29.702Z,58.2
2016-10-09T11:41:29.761Z,58.85
2016-10-09T11:42:29.826Z,59.62
2016-10-09T11:43:29.876Z,60.17
2016-10-09T11:44:29.925Z,60.3
2016-10-09T11:45:30.008Z,60.36
2016-10-09T11:46:30.046Z,60.36
2016-10-09T11:47:30.118Z,60.36
2016-10-09T11:48:30.172Z,60.17
2016-10-09T11:49:30.186Z,60.46
2016-10-09T11:50:30.235Z,60.65
2016-10-09T11:51:30.318Z,60.84
2016-10-09T11:52:30.392Z,59.78
2016-10-09T11:53:30.422Z,59.69
2016-10-09T11:54:30.472Z,59.88
2016-10-09T11:55:30.532Z,58.92
2016-10-09T11:56:30.621Z,60.27
2016-10-09T11:57:31.132Z,60.91
2016-10-09T11:58:30.678Z,61
2016-10-09T11:59:30.754Z,61.13
2016-10-09T12:00:30.816Z,60.27
2016-10-09T12:01:30.848Z,60.55
2016-10-09T12:02:30.887Z,59.97
2016-10-09T12:03:30.943Z,60.49
2016-10-09T12:04:30.993Z,60.46
2016-10-09T12:05:31.072Z,60.46
2016-10-09T12:06:31.148Z,59.91
2016-10-09T12:07:31.180Z,59.72
2016-10-09T12:08:31.227Z,59.62
2016-10-09T12:09:31.264Z,59.27
2016-10-09T12:10:31.318Z,58.69
2016-10-09T12:11:31.374Z,58.3
2016-10-09T12:12:31.430Z,57.82
2016-10-09T12:13:31.506Z,58.11
2016-10-09T12:14:31.549Z,58.88
2016-10-09T12:15:31.627Z,59.27
2016-10-09T12:16:31.684Z,59.33
2016-10-09T12:17:31.726Z,59.33
2016-10-09T12:18:31.755Z,59.72
2016-10-09T12:19:31.823Z,59.81
2016-10-09T12:20:31.842Z,59.78
2016-10-09T12:21:31.931Z,59.23
2016-10-09T12:22:31.998Z,59.04
2016-10-09T12:23:32.045Z,58.95
2016-10-09T12:24:32.057Z,60.2
2016-10-09T12:25:32.134Z,59.52
2016-10-09T12:26:32.177Z,59.17
2016-10-09T12:27:32.289Z,59.36
2016-10-09T12:28:32.290Z,58.78
2016-10-09T12:29:32.346Z,59.36
2016-10-09T12:30:32.397Z,59.65
2016-10-09T12:31:32.453Z,59.94
2016-10-09T12:32:32.506Z,59.75
2016-10-09T12:33:32.559Z,60
2016-10-09T12:34:32.624Z,60.2
2016-10-09T12:35:32.678Z,59.45
2016-10-09T12:36:32.749Z,58.78
2016-10-09T12:37:32.775Z,58.78
2016-10-09T12:38:32.825Z,58.04
2016-10-09T12:39:32.879Z,57.37
2016-10-09T12:40:32.940Z,57.07
2016-10-09T12:41:33.002Z,57.62
2016-10-09T12:42:33.065Z,57.34
2016-10-09T12:43:33.103Z,58.14
2016-10-09T12:44:33.176Z,57.46
2016-10-09T12:45:33.201Z,57.46
2016-10-09T12:46:33.299Z,57.56
2016-10-09T12:47:33.334Z,57.37
2016-10-09T12:48:33.410Z,58.23
2016-10-09T12:49:33.430Z,56.88
2016-10-09T12:50:33.509Z,54.98
2016-10-09T12:51:33.532Z,55.46
2016-10-09T12:52:33.606Z,56.33
2016-10-09T12:53:33.635Z,56.69
2016-10-09T12:54:33.716Z,57.07
2016-10-09T12:55:33.762Z,57.17
2016-10-09T12:56:33.796Z,55.54
2016-10-09T12:57:33.868Z,55.44
2016-10-09T12:58:33.938Z,56.49